createdAt,value
2019-06-08T00:00:13.199Z,19.80
2019-06-08T00:02:42.631Z,19.80
2019-06-08T00:05:14.574Z,19.70
2019-06-08T00:07:43.485Z,19.70
2019-06-08T00:10:12.761Z,19.60
2019-06-08T00:12:41.483Z,19.80
2019-06-08T00:15:11.313Z,19.90
2019-06-08T00:17:39.985Z,19.80
2019-06-08T00:20:09.054Z,19.90
2019-06-08T00:22:37.900Z,19.90
2019-06-08T00:25:07.076Z,19.80
2019-06-08T00:27:35.784Z,19.80
2019-06-08T00:30:06.748Z,19.80
2019-06-08T00:32:35.452Z,19.80
2019-06-08T00:35:07.810Z,19.70
2019-06-08T00:37:36.497Z,19.90
2019-06-08T00:40:07.868Z,19.60
2019-06-08T00:42:36.601Z,19.80
2019-06-08T00:45:07.178Z,19.70
2019-06-08T00:47:47.549Z,19.60
2019-06-08T00:50:08.427Z,19.80
2019-06-08T00:52:37.129Z,19.60
2019-06-08T00:55:06.902Z,19.40
2019-06-08T00:57:35.666Z,19.50
2019-06-08T01:00:10.593Z,19.40
2019-06-08T01:02:37.218Z,19.60
2019-06-08T01:05:07.397Z,19.50
2019-06-08T01:07:36.087Z,19.70
2019-06-08T01:10:06.741Z,19.90
2019-06-08T01:12:35.525Z,19.70
2019-06-08T01:15:06.258Z,19.80
2019-06-08T01:17:35.145Z,19.60
2019-06-08T01:20:08.138Z,19.40
2019-06-08T01:22:36.867Z,19.60
2019-06-08T01:25:06.675Z,19.20
2019-06-08T01:27:35.381Z,19.60
2019-06-08T01:30:06.786Z,19.70
2019-06-08T01:32:35.470Z,19.70
2019-06-08T01:35:05.171Z,19.00
2019-06-08T01:37:34.051Z,19.30
2019-06-08T01:40:02.927Z,19.40
2019-06-08T01:42:31.881Z,19.40
2019-06-08T01:45:00.662Z,19.10
2019-06-08T01:47:30.349Z,19.40
2019-06-08T01:49:59.095Z,19.10
2019-06-08T01:52:28.857Z,19.20
2019-06-08T01:54:57.903Z,19.00
2019-06-08T01:57:27.173Z,19.10
2019-06-08T01:59:55.955Z,19.00
2019-06-08T02:02:25.903Z,19.10
2019-06-08T02:04:54.831Z,18.80
2019-06-08T02:07:24.240Z,18.80
2019-06-08T02:09:52.960Z,18.80
2019-06-08T02:12:22.210Z,19.00
2019-06-08T02:14:50.881Z,19.00
2019-06-08T02:17:19.547Z,18.90
2019-06-08T02:19:49.843Z,18.70
2019-06-08T02:22:18.562Z,18.80
2019-06-08T02:24:47.276Z,18.70
2019-06-08T02:27:15.947Z,18.70
2019-06-08T02:29:44.621Z,18.90
2019-06-08T02:32:13.309Z,19.10
2019-06-08T02:34:42.708Z,18.90
2019-06-08T02:37:11.401Z,19.00
2019-06-08T02:39:40.067Z,18.90
2019-06-08T02:42:08.841Z,18.80
2019-06-08T02:44:37.519Z,18.80
2019-06-08T02:47:06.270Z,19.10
2019-06-08T02:49:35.432Z,18.90
2019-06-08T02:52:04.877Z,19.00
2019-06-08T02:54:35.505Z,18.80
2019-06-08T02:57:05.349Z,18.70
2019-06-08T02:59:40.911Z,19.00
2019-06-08T03:02:10.609Z,19.00
2019-06-08T03:04:41.244Z,18.90
2019-06-08T03:07:10.957Z,18.80
2019-06-08T03:09:41.073Z,18.90
2019-06-08T03:12:10.143Z,18.70
2019-06-08T03:14:42.101Z,18.90
2019-06-08T03:17:11.086Z,18.70
2019-06-08T03:19:40.438Z,18.60
2019-06-08T03:22:11.159Z,19.00
2019-06-08T03:24:41.449Z,18.70
2019-06-08T03:27:10.607Z,18.60
2019-06-08T03:29:41.313Z,18.70
2019-06-08T03:32:09.891Z,18.70
2019-06-08T03:34:46.797Z,18.50
2019-06-08T03:37:10.264Z,18.50
2019-06-08T03:39:39.062Z,18.20
2019-06-08T03:42:07.961Z,18.60
2019-06-08T03:44:38.334Z,18.70
2019-06-08T03:47:07.167Z,18.70
2019-06-08T03:49:42.895Z,18.60
2019-06-08T03:52:06.267Z,18.50
2019-06-08T03:54:36.046Z,18.50
2019-06-08T03:57:05.493Z,18.50
2019-06-08T03:59:34.176Z,18.50
2019-06-08T04:02:02.860Z,18.60
2019-06-08T04:04:31.708Z,18.80
2019-06-08T04:07:00.557Z,18.30
2019-06-08T04:09:29.227Z,18.50
2019-06-08T04:11:57.947Z,18.50
2019-06-08T04:14:26.685Z,18.20
2019-06-08T04:16:55.443Z,18.60
2019-06-08T04:19:24.420Z,18.20
2019-06-08T04:21:53.176Z,18.30
2019-06-08T04:24:21.915Z,18.20
2019-06-08T04:26:50.783Z,18.20
2019-06-08T04:29:19.694Z,18.10
2019-06-08T04:31:50.027Z,18.10
2019-06-08T04:34:18.792Z,18.20
2019-06-08T04:36:48.590Z,18.30
2019-06-08T04:39:17.880Z,18.30
2019-06-08T04:41:47.108Z,18.40
2019-06-08T04:44:16.425Z,18.30
2019-06-08T04:46:47.112Z,18.10
2019-06-08T04:49:15.800Z,18.20
2019-06-08T04:51:45.319Z,18.20
2019-06-08T04:54:15.080Z,18.50
2019-06-08T04:56:47.124Z,18.20
2019-06-08T04:59:16.022Z,18.30
2019-06-08T05:01:45.096Z,18.20
2019-06-08T05:04:14.023Z,18.30
2019-06-08T05:06:45.276Z,18.30
2019-06-08T05:09:21.091Z,18.70
2019-06-08T05:11:50.008Z,18.60
2019-06-08T05:14:19.188Z,18.40
2019-06-08T05:16:49.509Z,18.20
2019-06-08T05:19:18.393Z,18.40
2019-06-08T05:21:47.463Z,18.60
2019-06-08T05:24:16.399Z,18.50
2019-06-08T05:26:45.322Z,18.40
2019-06-08T05:29:14.357Z,18.50
2019-06-08T05:31:43.537Z,18.40
2019-06-08T05:34:12.643Z,18.20
2019-06-08T05:36:41.418Z,18.20
2019-06-08T05:39:10.073Z,18.00
2019-06-08T05:41:39.387Z,18.10
2019-06-08T05:44:08.335Z,18.00
2019-06-08T05:46:37.012Z,18.10
2019-06-08T05:49:07.123Z,18.00
2019-06-08T05:51:36.029Z,18.10
2019-06-08T05:54:04.713Z,18.00
2019-06-08T05:56:33.575Z,18.30
2019-06-08T05:59:02.267Z,18.10
2019-06-08T06:01:30.958Z,18.20
2019-06-08T06:03:59.774Z,18.00
2019-06-08T06:06:28.481Z,18.00
2019-06-08T06:08:57.160Z,18.00
2019-06-08T06:11:25.910Z,17.80
2019-06-08T06:13:54.587Z,17.70
2019-06-08T06:16:23.304Z,17.80
2019-06-08T06:18:52.373Z,18.00
2019-06-08T06:21:21.292Z,18.00
2019-06-08T06:23:51.408Z,18.00
2019-06-08T06:26:20.877Z,17.80
2019-06-08T06:28:49.742Z,17.90
2019-06-08T06:31:18.834Z,18.20
2019-06-08T06:33:47.935Z,18.10
2019-06-08T06:36:16.934Z,17.90
2019-06-08T06:38:45.942Z,18.10
2019-06-08T06:41:14.884Z,17.80
2019-06-08T06:43:43.977Z,18.30
2019-06-08T06:46:12.824Z,18.20
2019-06-08T06:48:42.092Z,18.10
2019-06-08T06:51:25.116Z,18.40
2019-06-08T06:53:42.767Z,18.20
2019-06-08T06:56:11.547Z,18.00
2019-06-08T06:58:40.307Z,18.10
2019-06-08T07:01:09.023Z,18.00
2019-06-08T07:03:37.719Z,18.00
2019-06-08T07:06:06.400Z,18.00
2019-06-08T07:08:35.119Z,18.00
2019-06-08T07:11:03.788Z,17.90
2019-06-08T07:13:32.475Z,18.10
2019-06-08T07:16:17.333Z,18.10
2019-06-08T07:18:32.881Z,17.80
2019-06-08T07:21:01.632Z,18.10
2019-06-08T07:23:30.322Z,17.80
2019-06-08T07:25:59.025Z,18.00
2019-06-08T07:28:27.908Z,18.10
2019-06-08T07:30:56.567Z,17.90
2019-06-08T07:33:25.263Z,18.10
2019-06-08T07:35:55.235Z,18.20
2019-06-08T07:38:24.222Z,18.00
2019-06-08T07:40:54.170Z,18.10
2019-06-08T07:43:23.347Z,18.20
2019-06-08T07:45:52.088Z,17.90
2019-06-08T07:48:20.857Z,18.10
2019-06-08T07:50:50.269Z,18.10
2019-06-08T07:53:19.203Z,18.40
2019-06-08T07:55:48.750Z,18.20
2019-06-08T07:58:18.278Z,18.30
2019-06-08T08:00:48.595Z,18.30
2019-06-08T08:03:17.762Z,18.30
2019-06-08T08:05:46.623Z,18.30
2019-06-08T08:08:16.132Z,18.20
2019-06-08T08:10:44.856Z,18.30
2019-06-08T08:13:13.530Z,18.20
2019-06-08T08:15:43.562Z,18.10
2019-06-08T08:18:12.406Z,18.40
2019-06-08T08:20:41.103Z,18.30
2019-06-08T08:23:10.543Z,18.50
2019-06-08T08:25:39.245Z,18.40
2019-06-08T08:28:08.328Z,18.70
2019-06-08T08:30:37.794Z,18.50
2019-06-08T08:33:07.835Z,18.60
2019-06-08T08:35:38.109Z,18.50
2019-06-08T08:38:07.561Z,18.60
2019-06-08T08:40:38.823Z,18.40
2019-06-08T08:43:09.386Z,18.50
2019-06-08T08:45:38.099Z,18.40
2019-06-08T08:48:23.928Z,18.70
2019-06-08T08:50:38.296Z,18.50
2019-06-08T08:53:08.344Z,18.60
2019-06-08T08:55:37.937Z,18.90
2019-06-08T08:58:08.395Z,18.60
2019-06-08T09:00:40.967Z,18.60
2019-06-08T09:03:27.906Z,18.60
2019-06-08T09:05:38.985Z,18.70
2019-06-08T09:08:08.736Z,18.80
2019-06-08T09:10:38.227Z,18.90
2019-06-08T09:13:09.338Z,18.80
2019-06-08T09:15:37.927Z,19.10
2019-06-08T09:18:08.124Z,19.10
2019-06-08T09:20:38.035Z,19.00
2019-06-08T09:23:14.937Z,19.10
2019-06-08T09:25:40.692Z,19.00
2019-06-08T09:28:09.148Z,19.10
2019-06-08T09:30:38.473Z,19.00
2019-06-08T09:33:07.983Z,18.80
2019-06-08T09:35:37.866Z,19.20
2019-06-08T09:38:10.492Z,19.20
2019-06-08T09:40:38.603Z,19.30
2019-06-08T09:43:12.296Z,19.50
2019-06-08T09:45:38.226Z,19.70
2019-06-08T09:48:09.268Z,19.60
2019-06-08T09:50:38.665Z,19.60
2019-06-08T09:53:23.129Z,19.50
2019-06-08T09:55:38.169Z,19.50
2019-06-08T09:58:11.705Z,19.60
2019-06-08T10:00:39.226Z,19.70
2019-06-08T10:03:09.483Z,19.80
2019-06-08T10:05:38.950Z,19.70
2019-06-08T10:08:09.548Z,19.80
2019-06-08T10:10:38.241Z,20.00
2019-06-08T10:13:09.454Z,19.70
2019-06-08T10:15:38.744Z,19.70
2019-06-08T10:18:08.265Z,19.60
2019-06-08T10:20:38.410Z,19.60
2019-06-08T10:23:26.849Z,19.30
2019-06-08T10:25:38.512Z,19.40
2019-06-08T10:28:13.240Z,19.30
2019-06-08T10:30:38.459Z,19.10
2019-06-08T10:33:09.858Z,19.50
2019-06-08T10:35:38.288Z,19.50
2019-06-08T10:38:11.531Z,19.70
2019-06-08T10:40:39.289Z,19.40
2019-06-08T10:43:09.879Z,19.60
2019-06-08T10:45:38.609Z,19.60
2019-06-08T10:48:07.345Z,19.80
2019-06-08T10:50:36.003Z,19.70
2019-06-08T10:53:08.233Z,19.90
2019-06-08T10:55:37.814Z,19.80
2019-06-08T10:58:07.149Z,19.80
2019-06-08T11:00:38.704Z,19.80
2019-06-08T11:03:09.745Z,19.90
2019-06-08T11:05:37.299Z,20.00
2019-06-08T11:08:08.599Z,20.10
2019-06-08T11:10:37.359Z,20.30
2019-06-08T11:13:10.394Z,20.40
2019-06-08T11:15:37.859Z,20.50
2019-06-08T11:18:09.687Z,20.70
2019-06-08T11:20:38.211Z,20.80
2019-06-08T11:23:10.645Z,20.70
2019-06-08T11:25:37.723Z,20.80
2019-06-08T11:28:11.824Z,20.90
2019-06-08T11:30:38.284Z,21.00
2019-06-08T11:33:09.377Z,21.00
2019-06-08T11:35:38.354Z,21.00
2019-06-08T11:38:10.967Z,20.90
2019-06-08T11:40:37.934Z,20.80
2019-06-08T11:43:08.508Z,20.80
2019-06-08T11:45:38.028Z,20.90
2019-06-08T11:48:06.868Z,20.90
2019-06-08T11:50:42.160Z,20.90
2019-06-08T11:53:14.254Z,20.90
2019-06-08T11:55:42.122Z,20.90
2019-06-08T11:58:13.684Z,20.80
2019-06-08T12:01:01.019Z,20.80
2019-06-08T12:03:30.206Z,20.90
2019-06-08T12:05:58.419Z,20.90
2019-06-08T12:08:28.405Z,20.90
2019-06-08T12:11:01.980Z,20.80
2019-06-08T12:13:28.090Z,20.70
2019-06-08T12:15:58.808Z,20.60
2019-06-08T12:18:27.218Z,20.60
2019-06-08T12:20:58.769Z,20.60
2019-06-08T12:23:26.342Z,20.60
2019-06-08T12:25:55.062Z,20.60
2019-06-08T12:28:23.867Z,20.60
2019-06-08T12:30:52.556Z,20.70
2019-06-08T12:33:22.933Z,20.80
2019-06-08T12:35:51.761Z,20.80
2019-06-08T12:38:20.486Z,20.80
2019-06-08T12:40:49.161Z,20.80
2019-06-08T12:43:19.843Z,20.90
2019-06-08T12:45:48.468Z,21.00
2019-06-08T12:48:22.496Z,21.00
2019-06-08T12:50:48.038Z,21.00
2019-06-08T12:53:22.518Z,21.10
2019-06-08T12:55:48.440Z,21.20
2019-06-08T12:58:20.537Z,21.30
2019-06-08T13:00:48.324Z,21.30
2019-06-08T13:03:18.676Z,21.20
2019-06-08T13:05:47.736Z,21.20
2019-06-08T13:08:20.041Z,21.10
2019-06-08T13:10:48.183Z,21.20
2019-06-08T13:13:23.472Z,21.10
2019-06-08T13:15:48.381Z,21.20
2019-06-08T13:18:19.788Z,21.20
2019-06-08T13:20:51.465Z,21.30
2019-06-08T13:23:20.021Z,21.40
2019-06-08T13:25:48.864Z,21.30
2019-06-08T13:28:24.702Z,21.30
2019-06-08T13:30:49.420Z,21.20
2019-06-08T13:33:18.317Z,21.20
2019-06-08T13:35:48.013Z,21.20
2019-06-08T13:38:19.651Z,21.30
2019-06-08T13:40:48.454Z,21.40
2019-06-08T13:43:19.745Z,21.50
2019-06-08T13:45:48.583Z,21.50
2019-06-08T13:48:18.941Z,21.40
2019-06-08T13:50:49.935Z,21.50
2019-06-08T13:53:24.326Z,21.60
2019-06-08T13:55:56.455Z,21.80
2019-06-08T13:58:26.523Z,21.90
2019-06-08T14:00:50.355Z,21.90
2019-06-08T14:03:21.286Z,22.00
2019-06-08T14:05:49.478Z,22.00
2019-06-08T14:08:20.471Z,21.90
2019-06-08T14:10:49.044Z,21.80
2019-06-08T14:13:24.553Z,21.80
2019-06-08T14:15:48.730Z,21.70
2019-06-08T14:18:22.553Z,21.60
2019-06-08T14:20:48.465Z,21.60
2019-06-08T14:23:19.675Z,21.50
2019-06-08T14:25:56.238Z,21.50
2019-06-08T14:28:20.786Z,21.50
2019-06-08T14:30:48.717Z,21.60
2019-06-08T14:33:21.709Z,21.80
2019-06-08T14:35:47.806Z,22.00
2019-06-08T14:38:19.433Z,22.00
2019-06-08T14:40:47.522Z,22.10
2019-06-08T14:43:17.751Z,22.10
2019-06-08T14:45:47.188Z,22.00
2019-06-08T14:48:21.048Z,22.00
2019-06-08T14:50:48.036Z,22.00
2019-06-08T14:53:18.850Z,22.10
2019-06-08T14:55:49.986Z,22.20
2019-06-08T14:58:18.621Z,22.20
2019-06-08T15:00:48.106Z,22.10
2019-06-08T15:03:18.053Z,22.10
2019-06-08T15:05:47.728Z,22.20
2019-06-08T15:08:17.638Z,22.30
2019-06-08T15:10:49.622Z,22.40
2019-06-08T15:13:18.873Z,22.40
2019-06-08T15:15:47.539Z,22.40
2019-06-08T15:18:18.554Z,22.50
2019-06-08T15:20:48.108Z,22.50
2019-06-08T15:23:21.191Z,22.60
2019-06-08T15:25:47.538Z,22.60
2019-06-08T15:28:18.240Z,22.50
2019-06-08T15:30:46.646Z,22.30
2019-06-08T15:33:15.336Z,22.20
2019-06-08T15:35:44.167Z,22.00
2019-06-08T15:38:13.062Z,21.90
2019-06-08T15:40:41.885Z,21.70
2019-06-08T15:43:10.779Z,21.50
2019-06-08T15:45:39.464Z,21.40
2019-06-08T15:48:08.231Z,21.50
2019-06-08T15:50:37.913Z,21.60
2019-06-08T15:53:08.332Z,21.70
2019-06-08T15:55:37.989Z,21.80
2019-06-08T15:58:08.994Z,21.80
2019-06-08T16:00:37.587Z,21.90
2019-06-08T16:03:06.449Z,22.00
2019-06-08T16:05:35.188Z,21.90
2019-06-08T16:08:03.885Z,21.90
2019-06-08T16:10:32.657Z,21.80
2019-06-08T16:13:01.362Z,21.90
2019-06-08T16:15:30.998Z,21.90
2019-06-08T16:17:59.831Z,21.80
2019-06-08T16:20:29.517Z,21.80
2019-06-08T16:22:58.400Z,21.80
2019-06-08T16:25:27.569Z,21.70
2019-06-08T16:27:59.883Z,21.60
2019-06-08T16:30:27.200Z,21.50
2019-06-08T16:32:56.060Z,21.50
2019-06-08T16:35:24.803Z,21.40
2019-06-08T16:37:53.550Z,21.50
2019-06-08T16:40:22.247Z,21.50
2019-06-08T16:42:50.909Z,21.50
2019-06-08T16:45:19.621Z,21.50
2019-06-08T16:47:48.415Z,21.60
2019-06-08T16:50:24.528Z,21.70
2019-06-08T16:52:47.573Z,21.60
2019-06-08T16:55:16.271Z,21.40
2019-06-08T16:57:44.968Z,21.20
2019-06-08T17:00:31.563Z,21.10
2019-06-08T17:02:44.791Z,21.10
2019-06-08T17:05:13.467Z,21.00
2019-06-08T17:07:42.198Z,20.80
2019-06-08T17:10:11.159Z,20.80
2019-06-08T17:12:39.929Z,20.70
2019-06-08T17:15:08.734Z,20.80
2019-06-08T17:17:38.582Z,20.70
2019-06-08T17:20:09.570Z,20.50
2019-06-08T17:22:38.807Z,20.70
2019-06-08T17:25:08.495Z,20.80
2019-06-08T17:27:38.825Z,21.00
2019-06-08T17:30:08.935Z,21.00
2019-06-08T17:32:38.442Z,20.80
2019-06-08T17:35:08.349Z,20.80
2019-06-08T17:37:38.009Z,20.90
2019-06-08T17:40:07.528Z,21.00
2019-06-08T17:42:37.486Z,20.90
2019-06-08T17:45:09.640Z,20.90
2019-06-08T17:47:38.594Z,20.90
2019-06-08T17:50:07.792Z,21.00
2019-06-08T17:52:37.085Z,20.90
2019-06-08T17:55:06.830Z,20.80
2019-06-08T17:57:47.167Z,20.90
2019-06-08T18:00:11.907Z,20.90
2019-06-08T18:02:43.573Z,21.00
2019-06-08T18:05:12.454Z,20.90
2019-06-08T18:07:43.548Z,21.00
2019-06-08T18:10:12.068Z,21.00
2019-06-08T18:12:43.026Z,21.00
2019-06-08T18:15:11.552Z,20.90
2019-06-08T18:17:42.144Z,20.90
2019-06-08T18:20:13.062Z,20.90
2019-06-08T18:22:44.336Z,20.70
2019-06-08T18:25:13.373Z,21.00
2019-06-08T18:27:46.807Z,20.90
2019-06-08T18:30:18.480Z,20.90
2019-06-08T18:32:48.383Z,20.80
2019-06-08T18:35:18.271Z,20.60
2019-06-08T18:37:48.685Z,20.80
2019-06-08T18:40:18.224Z,20.80
2019-06-08T18:42:48.800Z,20.80
2019-06-08T18:45:18.505Z,20.80
2019-06-08T18:47:48.399Z,20.80
2019-06-08T18:50:18.052Z,20.90
2019-06-08T18:52:49.600Z,20.90
2019-06-08T18:55:18.444Z,20.70
2019-06-08T18:57:49.048Z,20.70
2019-06-08T19:00:21.082Z,20.70
2019-06-08T19:02:54.338Z,20.70
2019-06-08T19:05:21.334Z,20.70
2019-06-08T19:07:52.518Z,20.80
2019-06-08T19:10:33.431Z,20.70
2019-06-08T19:13:02.126Z,20.70
2019-06-08T19:15:44.280Z,20.60
2019-06-08T19:18:10.981Z,20.40
2019-06-08T19:20:43.124Z,20.40
2019-06-08T19:23:20.671Z,20.40
2019-06-08T19:25:49.453Z,20.40
2019-06-08T19:28:32.663Z,20.40
2019-06-08T19:30:51.379Z,20.40
2019-06-08T19:33:19.187Z,20.20
2019-06-08T19:35:49.908Z,20.40
2019-06-08T19:38:18.293Z,20.20
2019-06-08T19:40:48.182Z,20.40
2019-06-08T19:43:18.251Z,20.30
2019-06-08T19:45:51.502Z,20.30
2019-06-08T19:48:17.971Z,20.40
2019-06-08T19:50:47.314Z,20.30
2019-06-08T19:53:18.285Z,20.20
2019-06-08T19:55:51.146Z,20.10
2019-06-08T19:58:18.134Z,20.00
2019-06-08T20:00:51.228Z,20.10
2019-06-08T20:03:17.820Z,20.10
2019-06-08T20:05:50.119Z,19.90
2019-06-08T20:08:18.812Z,20.10
2019-06-08T20:10:48.960Z,19.90
2019-06-08T20:13:18.284Z,19.70
2019-06-08T20:15:52.761Z,19.60
2019-06-08T20:18:18.056Z,19.40
2019-06-08T20:20:50.589Z,19.60
2019-06-08T20:23:18.118Z,19.60
2019-06-08T20:25:50.142Z,19.40
2019-06-08T20:28:17.628Z,19.40
2019-06-08T20:30:46.724Z,19.40
2019-06-08T20:33:15.579Z,19.30
2019-06-08T20:35:45.527Z,19.50
2019-06-08T20:38:14.342Z,19.50
2019-06-08T20:40:43.994Z,19.70
2019-06-08T20:43:12.796Z,19.50
2019-06-08T20:45:42.049Z,19.60
2019-06-08T20:48:10.992Z,19.60
2019-06-08T20:50:39.663Z,19.30
2019-06-08T20:53:08.683Z,19.50
2019-06-08T20:55:40.500Z,19.40
2019-06-08T20:58:08.233Z,19.70
2019-06-08T21:00:37.770Z,19.50
2019-06-08T21:03:08.197Z,19.40
2019-06-08T21:05:37.287Z,19.50
2019-06-08T21:08:08.158Z,19.40
2019-06-08T21:10:37.778Z,19.50
2019-06-08T21:13:07.263Z,19.60
2019-06-08T21:15:38.277Z,19.50
2019-06-08T21:18:07.866Z,19.50
2019-06-08T21:20:37.803Z,19.50
2019-06-08T21:23:08.248Z,19.20
2019-06-08T21:25:37.328Z,19.40
2019-06-08T21:28:07.944Z,19.30
2019-06-08T21:30:37.756Z,19.30
2019-06-08T21:33:08.226Z,19.30
2019-06-08T21:35:39.393Z,19.30
2019-06-08T21:38:22.574Z,19.30
2019-06-08T21:40:38.527Z,19.30
2019-06-08T21:43:08.114Z,19.20
2019-06-08T21:45:38.131Z,19.10
2019-06-08T21:48:07.603Z,19.00
2019-06-08T21:50:37.153Z,19.20
2019-06-08T21:53:07.747Z,19.00
2019-06-08T21:55:38.030Z,19.20
2019-06-08T21:58:08.089Z,18.90
2019-06-08T22:00:42.989Z,19.00
2019-06-08T22:03:08.262Z,19.00
2019-06-08T22:05:37.680Z,19.10
2019-06-08T22:08:07.986Z,19.10
2019-06-08T22:10:37.683Z,19.10
2019-06-08T22:13:08.693Z,19.10
2019-06-08T22:15:38.035Z,18.90
2019-06-08T22:18:07.985Z,19.20
2019-06-08T22:20:38.334Z,18.90
2019-06-08T22:23:07.468Z,18.80
2019-06-08T22:25:38.560Z,18.80
2019-06-08T22:28:07.266Z,18.90
2019-06-08T22:30:42.580Z,18.90
2019-06-08T22:33:06.987Z,19.00
2019-06-08T22:35:37.334Z,19.10
2019-06-08T22:38:08.436Z,18.80
2019-06-08T22:40:37.126Z,18.90
2019-06-08T22:43:08.055Z,18.80
2019-06-08T22:45:37.423Z,18.70
2019-06-08T22:48:08.268Z,18.80
2019-06-08T22:50:38.243Z,18.80
2019-06-08T22:53:08.016Z,19.10
2019-06-08T22:55:38.203Z,18.80
2019-06-08T22:58:07.693Z,18.90
2019-06-08T23:00:51.393Z,18.80
2019-06-08T23:03:08.576Z,18.40
2019-06-08T23:05:37.730Z,18.50
2019-06-08T23:08:09.351Z,18.70
2019-06-08T23:10:37.461Z,18.70
2019-06-08T23:13:08.429Z,18.60
2019-06-08T23:15:37.021Z,18.70
2019-06-08T23:18:06.817Z,18.50
2019-06-08T23:20:37.134Z,18.60
2019-06-08T23:23:08.623Z,18.60
2019-06-08T23:25:37.277Z,18.70
2019-06-08T23:28:09.503Z,18.70
2019-06-08T23:30:38.294Z,18.60
2019-06-08T23:33:11.362Z,18.40
2019-06-08T23:36:07.667Z,18.60
2019-06-08T23:38:09.335Z,18.80
2019-06-08T23:40:38.250Z,18.60
2019-06-08T23:43:08.257Z,18.30
2019-06-08T23:45:38.028Z,18.50
2019-06-08T23:48:07.055Z,18.30
2019-06-08T23:50:37.772Z,18.50
2019-06-08T23:53:09.148Z,18.50
2019-06-08T23:55:37.209Z,18.40
2019-06-08T23:58:09.565Z,18.50
